createdAt,value
2018-03-11T00:02:39.310Z,94509
2018-03-11T00:08:07.446Z,94520
2018-03-11T00:13:35.585Z,94526
2018-03-11T00:19:03.939Z,94514
2018-03-11T00:24:32.855Z,94506
2018-03-11T00:30:01.786Z,94502
2018-03-11T00:35:29.959Z,94491
2018-03-11T00:41:00.127Z,94491
2018-03-11T00:46:28.312Z,94480
2018-03-11T00:51:57.279Z,94475
2018-03-11T00:57:25.443Z,94472
2018-03-11T01:02:53.639Z,94473
2018-03-11T01:08:21.803Z,94458
2018-03-11T01:13:50.734Z,94453
2018-03-11T01:19:19.641Z,94440
2018-03-11T01:24:47.792Z,94445
2018-03-11T01:30:15.934Z,94435
2018-03-11T01:35:44.839Z,94439
2018-03-11T01:41:12.990Z,94424
2018-03-11T01:46:42.123Z,94410
2018-03-11T01:52:10.303Z,94407
2018-03-11T01:57:38.435Z,94402
2018-03-11T02:03:06.663Z,94400
2018-03-11T02:08:34.713Z,94394
2018-03-11T02:14:03.614Z,94388
2018-03-11T02:19:31.751Z,94375
2018-03-11T02:24:59.886Z,94369
2018-03-11T02:30:28.824Z,94358
2018-03-11T02:35:56.974Z,94348
2018-03-11T02:41:25.110Z,94332
2018-03-11T02:46:53.299Z,94331
2018-03-11T02:52:21.692Z,94353
2018-03-11T02:57:49.924Z,94342
2018-03-11T03:03:18.083Z,94337
2018-03-11T03:08:46.219Z,94333
2018-03-11T03:14:14.355Z,94326
2018-03-11T03:19:42.507Z,94323
2018-03-11T03:25:11.437Z,94315
2018-03-11T03:30:39.593Z,94300
2018-03-11T03:36:07.736Z,94296
2018-03-11T03:41:35.862Z,94286
2018-03-11T03:47:04.046Z,94285
2018-03-11T03:52:32.179Z,94282
2018-03-11T03:58:00.322Z,94266
2018-03-11T04:03:28.454Z,94263
2018-03-11T04:08:56.580Z,94244
2018-03-11T04:14:24.803Z,94245
2018-03-11T04:19:52.973Z,94257
2018-03-11T04:25:21.114Z,94244
2018-03-11T04:30:49.284Z,94234
2018-03-11T04:36:18.195Z,94226
2018-03-11T04:41:46.312Z,94213
2018-03-11T04:47:14.451Z,94208
2018-03-11T04:52:43.360Z,94206
2018-03-11T04:58:11.511Z,94190
2018-03-11T05:03:40.416Z,94188
2018-03-11T05:09:08.572Z,94197
2018-03-11T05:14:37.474Z,94209
2018-03-11T05:20:05.610Z,94220
2018-03-11T05:25:33.780Z,94206
2018-03-11T05:31:02.484Z,94212
2018-03-11T05:36:31.382Z,94216
2018-03-11T05:41:59.601Z,94207
2018-03-11T05:47:27.729Z,94205
2018-03-11T05:52:55.884Z,94195
2018-03-11T05:58:24.107Z,94204
2018-03-11T06:03:52.319Z,94172
2018-03-11T06:09:21.268Z,94159
2018-03-11T06:14:50.200Z,94159
2018-03-11T06:20:19.100Z,94154
2018-03-11T06:25:47.226Z,94144
2018-03-11T06:31:15.363Z,94147
2018-03-11T06:36:43.481Z,94120
2018-03-11T06:42:11.636Z,94129
2018-03-11T06:47:39.767Z,94138
2018-03-11T06:53:07.921Z,94111
2018-03-11T06:58:36.157Z,94116
2018-03-11T07:04:05.074Z,94074
2018-03-11T07:09:33.365Z,94068
2018-03-11T07:15:01.499Z,94085
2018-03-11T07:20:29.637Z,94063
2018-03-11T07:25:57.850Z,94091
2018-03-11T07:31:26.192Z,94063
2018-03-11T07:36:55.178Z,94100
2018-03-11T07:42:23.374Z,94082
2018-03-11T07:47:51.622Z,94095
2018-03-11T07:53:20.754Z,94109
2018-03-11T07:58:48.876Z,94110
2018-03-11T08:04:17.024Z,94132
2018-03-11T08:09:45.224Z,94123
2018-03-11T08:15:13.358Z,94110
2018-03-11T08:20:41.501Z,94113
2018-03-11T08:26:09.688Z,94101
2018-03-11T08:31:38.003Z,94100
2018-03-11T08:37:06.151Z,94092
2018-03-11T08:42:35.437Z,94095
2018-03-11T08:48:04.378Z,94104
2018-03-11T08:53:33.439Z,94093
2018-03-11T08:59:01.779Z,94096
2018-03-11T09:04:30.708Z,94091
2018-03-11T09:09:58.932Z,94095
2018-03-11T09:15:27.147Z,94084
2018-03-11T09:20:55.356Z,94076
2018-03-11T09:26:24.218Z,94083
2018-03-11T09:31:52.509Z,94085
2018-03-11T09:37:20.705Z,94067
2018-03-11T09:42:50.112Z,94056
2018-03-11T09:48:18.455Z,94062
2018-03-11T09:53:49.481Z,94053
2018-03-11T09:59:20.008Z,94038
2018-03-11T10:04:49.947Z,94032
2018-03-11T10:10:18.270Z,94018
2018-03-11T10:15:46.436Z,94021
2018-03-11T10:21:16.429Z,94007
2018-03-11T10:26:45.490Z,94001
2018-03-11T10:32:13.644Z,94001
2018-03-11T10:37:41.810Z,93993
2018-03-11T10:43:10.730Z,93992
2018-03-11T10:48:38.885Z,93978
2018-03-11T10:54:07.045Z,93963
2018-03-11T10:59:35.310Z,93954
2018-03-11T11:05:04.425Z,93950
2018-03-11T11:10:33.421Z,93947
2018-03-11T11:16:01.615Z,93931
2018-03-11T11:21:30.618Z,93913
2018-03-11T11:26:58.775Z,93901
2018-03-11T11:32:27.820Z,93894
2018-03-11T11:37:56.045Z,93885
2018-03-11T11:43:24.370Z,93879
2018-03-11T11:48:53.159Z,93861
2018-03-11T11:54:21.358Z,93845
2018-03-11T11:59:49.563Z,93838
2018-03-11T12:05:17.758Z,93830
2018-03-11T12:10:47.115Z,93833
2018-03-11T12:16:15.262Z,93820
2018-03-11T12:21:43.535Z,93802
2018-03-11T12:27:11.788Z,93793
2018-03-11T12:32:39.950Z,93782
2018-03-11T12:38:08.127Z,93769
2018-03-11T12:43:36.368Z,93755
2018-03-11T12:49:04.526Z,93739
2018-03-11T12:54:32.837Z,93745
2018-03-11T13:00:01.069Z,93736
2018-03-11T13:05:30.047Z,93734
2018-03-11T13:10:58.224Z,93735
2018-03-11T13:16:26.410Z,93733
2018-03-11T13:21:54.548Z,93723
2018-03-11T13:27:22.852Z,93725
2018-03-11T13:33:08.867Z,93732
2018-03-11T13:38:54.982Z,93743
2018-03-11T13:44:24.085Z,93737
2018-03-11T13:49:52.249Z,93732
2018-03-11T13:55:21.475Z,93732
2018-03-11T14:00:49.718Z,93732
2018-03-11T14:06:18.724Z,93723
2018-03-11T14:11:46.939Z,93728
2018-03-11T14:23:27.436Z,93690
2018-03-11T14:28:55.640Z,93692
2018-03-11T14:34:23.864Z,93707
2018-03-11T14:39:54.636Z,93691
2018-03-11T14:45:24.266Z,93674
2018-03-11T14:50:54.065Z,93667
2018-03-11T14:56:22.418Z,93674
2018-03-11T15:01:50.614Z,93659
2018-03-11T15:07:18.927Z,93637
2018-03-11T15:13:06.761Z,93637
2018-03-11T15:18:35.417Z,93637
2018-03-11T15:24:07.798Z,93644
2018-03-11T15:29:36.829Z,93646
2018-03-11T15:35:04.966Z,93645
2018-03-11T15:40:33.967Z,93645
2018-03-11T15:46:02.192Z,93644
2018-03-11T15:51:30.563Z,93643
2018-03-11T15:56:59.881Z,93634
2018-03-11T16:02:28.240Z,93624
2018-03-11T16:07:56.586Z,93619
2018-03-11T16:13:24.797Z,93616
2018-03-11T16:18:53.003Z,93602
2018-03-11T16:24:28.473Z,93599
2018-03-11T16:29:50.154Z,93596
2018-03-11T16:35:18.456Z,93587
2018-03-11T16:40:47.527Z,93583
2018-03-11T16:46:15.765Z,93579
2018-03-11T16:51:44.829Z,93583
2018-03-11T16:57:13.005Z,93582
2018-03-11T17:02:41.267Z,93591
2018-03-11T17:08:09.515Z,93591
2018-03-11T17:13:38.434Z,93602
2018-03-11T17:19:07.571Z,93599
2018-03-11T17:24:35.745Z,93591
2018-03-11T17:30:04.719Z,93593
2018-03-11T17:35:32.926Z,93597
2018-03-11T17:41:01.085Z,93601
2018-03-11T17:46:29.306Z,93589
2018-03-11T17:51:57.515Z,93588
2018-03-11T17:57:25.709Z,93595
2018-03-11T18:02:53.982Z,93585
2018-03-11T18:08:22.285Z,93578
2018-03-11T18:13:53.921Z,93576
2018-03-11T18:19:22.984Z,93584
2018-03-11T18:24:51.966Z,93580
2018-03-11T18:30:20.179Z,93578
2018-03-11T18:35:52.434Z,93569
2018-03-11T18:41:21.882Z,93569
2018-03-11T18:46:50.883Z,93579
2018-03-11T18:52:19.222Z,93567
2018-03-11T18:57:47.625Z,93575
2018-03-11T19:03:17.442Z,93566
2018-03-11T19:08:46.403Z,93568
2018-03-11T19:14:15.917Z,93556
2018-03-11T19:19:44.209Z,93551
2018-03-11T19:25:14.335Z,93551
2018-03-11T19:30:42.487Z,93544
2018-03-11T19:36:10.700Z,93531
2018-03-11T19:41:38.857Z,93530
2018-03-11T19:47:07.246Z,93533
2018-03-11T19:52:35.465Z,93531
2018-03-11T19:58:03.667Z,93533
2018-03-11T20:03:31.812Z,93537
2018-03-11T20:09:00.038Z,93535
2018-03-11T20:14:31.161Z,93531
2018-03-11T20:20:00.291Z,93527
2018-03-11T20:25:33.492Z,93541
2018-03-11T20:31:02.541Z,93544
2018-03-11T20:36:30.847Z,93558
2018-03-11T20:41:59.212Z,93555
2018-03-11T20:47:29.312Z,93559
2018-03-11T20:52:58.274Z,93556
2018-03-11T20:58:26.469Z,93563
2018-03-11T21:03:56.535Z,93550
2018-03-11T21:09:25.488Z,93534
2018-03-11T21:14:53.755Z,93553
2018-03-11T21:20:22.238Z,93578
2018-03-11T21:25:50.392Z,93578
2018-03-11T21:31:18.632Z,93573
2018-03-11T21:36:46.787Z,93567
2018-03-11T21:42:15.688Z,93565
2018-03-11T21:47:43.853Z,93567
2018-03-11T21:53:11.988Z,93557
2018-03-11T21:58:40.176Z,93561
2018-03-11T22:04:10.123Z,93560
2018-03-11T22:09:39.043Z,93564
2018-03-11T22:15:07.188Z,93565
2018-03-11T22:20:36.118Z,93562
2018-03-11T22:26:05.027Z,93557
2018-03-11T22:31:33.194Z,93572
2018-03-11T22:37:01.371Z,93556
2018-03-11T22:42:29.544Z,93551
2018-03-11T22:47:57.741Z,93549
2018-03-11T22:53:25.938Z,93548
2018-03-11T22:58:54.084Z,93546
2018-03-11T23:04:23.042Z,93543
2018-03-11T23:09:51.502Z,93534
2018-03-11T23:15:19.668Z,93532
2018-03-11T23:20:48.574Z,93523
2018-03-11T23:26:17.645Z,93534
2018-03-11T23:31:46.533Z,93523
2018-03-11T23:37:14.739Z,93533
2018-03-11T23:42:42.876Z,93521
2018-03-11T23:48:11.077Z,93513
2018-03-11T23:53:39.297Z,93509
2018-03-11T23:59:08.539Z,93492
